createdAt,value
2023-05-08T00:04:24.084Z,69.75
2023-05-08T00:09:26.116Z,69.61
2023-05-08T00:14:27.909Z,70.34
2023-05-08T00:19:29.803Z,70.37
2023-05-08T00:24:31.596Z,70.04
2023-05-08T00:29:33.934Z,70.80
2023-05-08T00:34:36.341Z,70.59
2023-05-08T00:39:38.139Z,71.30
2023-05-08T00:44:40.185Z,71.34
2023-05-08T00:49:43.095Z,71.83
2023-05-08T00:54:46.429Z,72.15
2023-05-08T00:59:50.483Z,72.70
2023-05-08T01:04:54.814Z,72.96
2023-05-08T01:09:56.619Z,73.18
2023-05-08T01:15:33.038Z,72.96
2023-05-08T01:21:13.976Z,73.79
2023-05-08T01:26:51.668Z,74.01
2023-05-08T01:32:16.463Z,73.86
2023-05-08T01:37:35.609Z,73.56
2023-05-08T01:42:55.116Z,73.80
2023-05-08T01:48:26.681Z,74.19
2023-05-08T01:53:34.757Z,73.90
2023-05-08T01:58:39.130Z,74.33
2023-05-08T02:03:46.566Z,74.31
2023-05-08T02:08:51.352Z,75.00
2023-05-08T02:13:55.301Z,74.24
2023-05-08T02:19:01.913Z,74.64
2023-05-08T02:24:06.318Z,74.08
2023-05-08T02:29:09.391Z,74.35
2023-05-08T02:34:12.817Z,74.15
2023-05-08T02:39:17.244Z,74.00
2023-05-08T02:44:19.513Z,74.53
2023-05-08T02:49:55.031Z,74.09
2023-05-08T02:55:49.291Z,74.17
2023-05-08T03:01:19.341Z,73.91
2023-05-08T03:06:26.154Z,74.07
2023-05-08T03:11:41.166Z,73.80
2023-05-08T03:16:47.773Z,74.31
2023-05-08T03:21:53.227Z,74.18
2023-05-08T03:26:59.022Z,74.54
2023-05-08T03:32:03.702Z,74.61
2023-05-08T03:37:06.150Z,75.34
2023-05-08T03:42:08.134Z,75.56
2023-05-08T03:47:10.734Z,75.05
2023-05-08T03:52:14.713Z,75.57
2023-05-08T03:57:16.586Z,75.57
2023-05-08T04:02:40.149Z,75.25
2023-05-08T04:07:56.825Z,75.94
2023-05-08T04:13:19.938Z,75.87
2023-05-08T04:18:30.245Z,75.53
2023-05-08T04:23:35.317Z,76.17
2023-05-08T04:28:40.647Z,76.61
2023-05-08T04:33:45.161Z,75.82
2023-05-08T04:38:46.977Z,75.60
2023-05-08T04:43:49.755Z,75.46
2023-05-08T04:48:51.577Z,75.25
2023-05-08T04:53:53.414Z,74.23
2023-05-08T04:58:55.199Z,74.54
2023-05-08T05:03:57.021Z,73.91
2023-05-08T05:08:58.822Z,73.41
2023-05-08T05:14:00.825Z,72.54
2023-05-08T05:19:02.670Z,73.46
2023-05-08T05:24:07.723Z,71.52
2023-05-08T05:29:09.520Z,72.38
2023-05-08T05:34:11.254Z,72.38
2023-05-08T05:39:13.199Z,71.29
2023-05-08T05:44:14.971Z,70.94
2023-05-08T05:49:16.793Z,70.17
2023-05-08T05:54:18.546Z,68.88
2023-05-08T05:59:20.329Z,67.26
2023-05-08T06:04:23.252Z,64.89
2023-05-08T06:09:25.056Z,63.09
2023-05-08T06:14:26.943Z,61.56
2023-05-08T06:19:28.718Z,60.31
2023-05-08T06:24:30.720Z,57.43
2023-05-08T06:29:32.542Z,57.14
2023-05-08T06:34:34.632Z,55.91
2023-05-08T06:39:36.603Z,55.69
2023-05-08T06:44:38.502Z,53.62
2023-05-08T06:49:40.222Z,54.04
2023-05-08T06:54:42.107Z,53.28
2023-05-08T06:59:43.980Z,52.12
2023-05-08T07:04:45.927Z,51.00
2023-05-08T07:09:47.804Z,51.40
2023-05-08T07:14:50.274Z,50.51
2023-05-08T07:19:52.141Z,47.96
2023-05-08T07:24:53.880Z,47.23
2023-05-08T07:29:57.437Z,46.18
2023-05-08T07:34:59.328Z,44.63
2023-05-08T07:40:01.217Z,42.88
2023-05-08T07:45:03.088Z,42.50
2023-05-08T07:50:06.380Z,40.67
2023-05-08T07:55:08.933Z,39.93
2023-05-08T08:00:15.822Z,39.89
2023-05-08T08:05:17.606Z,41.22
2023-05-08T08:10:19.583Z,40.26
2023-05-08T08:15:21.382Z,39.65
2023-05-08T08:20:23.491Z,38.51
2023-05-08T08:25:25.593Z,36.81
2023-05-08T08:30:27.402Z,35.64
2023-05-08T08:35:30.281Z,35.47
2023-05-08T08:40:32.274Z,35.06
2023-05-08T08:45:34.314Z,35.11
2023-05-08T08:50:41.617Z,33.68
2023-05-08T08:55:52.476Z,33.79
2023-05-08T09:00:56.153Z,35.04
2023-05-08T09:06:01.436Z,33.22
2023-05-08T09:11:03.412Z,32.18
2023-05-08T09:16:06.233Z,32.55
2023-05-08T09:21:08.121Z,32.91
2023-05-08T09:26:09.934Z,32.49
2023-05-08T09:31:11.712Z,33.47
2023-05-08T09:36:28.772Z,33.22
2023-05-08T09:41:30.670Z,32.70
2023-05-08T09:46:34.554Z,32.84
2023-05-08T09:51:36.417Z,33.15
2023-05-08T09:56:40.117Z,34.49
2023-05-08T10:01:42.062Z,32.29
2023-05-08T10:06:44.429Z,31.56
2023-05-08T10:11:54.439Z,31.65
2023-05-08T10:17:00.079Z,31.63
2023-05-08T10:22:05.473Z,31.29
2023-05-08T10:27:27.964Z,32.60
2023-05-08T10:32:40.704Z,33.13
2023-05-08T10:37:47.545Z,33.09
2023-05-08T10:42:50.778Z,30.90
2023-05-08T10:49:08.995Z,31.66
2023-05-08T10:55:09.340Z,32.09
2023-05-08T11:00:12.181Z,31.61
2023-05-08T11:05:19.013Z,31.07
2023-05-08T11:10:21.956Z,31.25
2023-05-08T11:15:42.055Z,32.00
2023-05-08T11:21:04.230Z,31.81
2023-05-08T11:26:14.843Z,31.76
2023-05-08T11:31:16.632Z,32.29
2023-05-08T11:36:23.112Z,31.50
2023-05-08T11:41:25.611Z,31.81
2023-05-08T11:46:41.497Z,31.43
2023-05-08T11:51:47.021Z,31.18
2023-05-08T11:56:51.613Z,30.09
2023-05-08T12:06:59.025Z,30.93
2023-05-08T12:12:00.797Z,30.71
2023-05-08T12:17:03.695Z,31.03
2023-05-08T12:22:05.626Z,30.09
2023-05-08T12:27:07.766Z,30.25
2023-05-08T12:32:10.989Z,30.44
2023-05-08T12:37:26.857Z,30.41
2023-05-08T12:42:51.782Z,29.83
2023-05-08T12:48:04.038Z,30.36
2023-05-08T12:53:11.726Z,30.52
2023-05-08T12:58:15.576Z,29.64
2023-05-08T13:03:30.681Z,30.52
2023-05-08T13:08:38.855Z,29.51
2023-05-08T13:13:40.734Z,30.03
2023-05-08T13:18:42.452Z,29.70
2023-05-08T13:23:44.179Z,29.20
2023-05-08T13:28:46.084Z,29.54
2023-05-08T13:33:47.895Z,29.41
2023-05-08T13:38:54.137Z,29.11
2023-05-08T13:43:55.930Z,29.20
2023-05-08T13:48:57.703Z,29.07
2023-05-08T13:53:59.438Z,28.46
2023-05-08T13:59:01.184Z,27.92
2023-05-08T14:04:03.099Z,28.00
2023-05-08T14:09:05.003Z,27.51
2023-05-08T14:14:06.853Z,27.29
2023-05-08T14:19:08.680Z,26.67
2023-05-08T14:24:10.552Z,26.30
2023-05-08T14:29:12.382Z,27.90
2023-05-08T14:34:14.220Z,27.83
2023-05-08T14:39:16.028Z,27.37
2023-05-08T14:44:17.977Z,27.89
2023-05-08T14:54:43.361Z,27.92
2023-05-08T14:59:54.159Z,27.93
2023-05-08T15:04:56.969Z,27.55
2023-05-08T15:09:58.800Z,27.36
2023-05-08T15:15:02.675Z,27.82
2023-05-08T15:20:10.600Z,28.44
2023-05-08T15:25:12.974Z,27.31
2023-05-08T15:30:15.644Z,27.13
2023-05-08T15:35:17.689Z,27.41
2023-05-08T15:40:19.678Z,27.41
2023-05-08T15:45:21.724Z,27.77
2023-05-08T15:50:23.550Z,28.78
2023-05-08T15:55:25.329Z,28.32
2023-05-08T16:00:36.804Z,29.33
2023-05-08T16:05:45.555Z,30.40
2023-05-08T16:10:48.418Z,29.46
2023-05-08T16:15:50.471Z,28.25
2023-05-08T16:20:52.266Z,27.76
2023-05-08T16:25:54.159Z,28.73
2023-05-08T16:30:56.028Z,28.85
2023-05-08T16:35:57.774Z,29.44
2023-05-08T16:41:10.021Z,28.58
2023-05-08T16:46:11.923Z,28.62
2023-05-08T16:51:14.017Z,30.50
2023-05-08T16:56:15.833Z,30.29
2023-05-08T17:01:17.680Z,30.91
2023-05-08T17:06:20.637Z,30.65
2023-05-08T17:11:22.510Z,29.93
2023-05-08T17:16:24.321Z,31.08
2023-05-08T17:21:26.208Z,31.05
2023-05-08T17:26:31.950Z,30.97
2023-05-08T17:31:33.687Z,31.01
2023-05-08T17:36:35.598Z,31.50
2023-05-08T17:41:37.323Z,30.94
2023-05-08T17:46:39.160Z,31.90
2023-05-08T17:51:44.144Z,32.00
2023-05-08T17:56:46.050Z,31.70
2023-05-08T18:01:47.842Z,31.51
2023-05-08T18:06:51.563Z,31.17
2023-05-08T18:11:55.719Z,31.29
2023-05-08T18:16:58.307Z,31.58
2023-05-08T18:22:00.122Z,31.42
2023-05-08T18:27:01.839Z,32.12
2023-05-08T18:32:04.043Z,32.49
2023-05-08T18:37:05.851Z,33.19
2023-05-08T18:42:07.870Z,33.72
2023-05-08T18:47:09.649Z,32.97
2023-05-08T18:52:11.749Z,33.81
2023-05-08T18:57:13.611Z,33.82
2023-05-08T19:02:15.340Z,34.60
2023-05-08T19:07:17.225Z,34.48
2023-05-08T19:12:19.112Z,34.75
2023-05-08T19:17:21.734Z,34.41
2023-05-08T19:22:23.637Z,35.27
2023-05-08T19:27:25.819Z,35.59
2023-05-08T19:32:28.624Z,36.33
2023-05-08T19:37:31.020Z,35.72
2023-05-08T19:42:33.052Z,36.51
2023-05-08T19:47:34.953Z,37.75
2023-05-08T19:52:36.766Z,37.90
2023-05-08T19:57:38.716Z,38.74
2023-05-08T20:02:40.591Z,39.85
2023-05-08T20:07:42.480Z,40.10
2023-05-08T20:12:44.264Z,40.70
2023-05-08T20:17:46.134Z,40.90
2023-05-08T20:22:47.967Z,41.46
2023-05-08T20:27:49.965Z,41.38
2023-05-08T20:32:52.020Z,42.36
2023-05-08T20:37:53.871Z,43.26
2023-05-08T20:42:55.833Z,43.43
2023-05-08T20:47:57.969Z,43.32
2023-05-08T20:53:00.099Z,44.05
2023-05-08T20:58:03.653Z,43.58
2023-05-08T21:03:05.971Z,44.46
2023-05-08T21:08:08.692Z,45.36
2023-05-08T21:13:17.561Z,45.11
2023-05-08T21:18:19.881Z,45.44
2023-05-08T21:23:21.837Z,45.68
2023-05-08T21:28:23.703Z,46.02
2023-05-08T21:33:25.567Z,46.24
2023-05-08T21:38:27.568Z,47.00
2023-05-08T21:43:29.523Z,46.87
2023-05-08T21:48:31.472Z,46.48
2023-05-08T21:53:33.319Z,47.03
2023-05-08T21:58:35.188Z,47.27
2023-05-08T22:03:37.131Z,47.85
2023-05-08T22:08:39.022Z,48.29
2023-05-08T22:13:41.284Z,47.90
2023-05-08T22:18:43.085Z,48.26
2023-05-08T22:23:44.961Z,48.82
2023-05-08T22:28:46.723Z,49.19
2023-05-08T22:33:48.600Z,49.37
2023-05-08T22:38:50.545Z,49.65
2023-05-08T22:41:27.554Z,49.44
2023-05-08T22:42:29.471Z,49.87
2023-05-08T22:43:31.877Z,49.97
2023-05-08T22:44:33.699Z,49.68
2023-05-08T22:45:35.741Z,49.52
2023-05-08T22:46:38.723Z,50.89
2023-05-08T22:47:41.192Z,49.69
2023-05-08T22:48:43.023Z,50.20
2023-05-08T22:49:45.074Z,50.04
2023-05-08T22:50:47.046Z,50.88
2023-05-08T22:51:50.365Z,50.39
2023-05-08T22:52:52.140Z,50.53
2023-05-08T22:53:54.980Z,50.13
2023-05-08T22:54:56.704Z,50.24
2023-05-08T22:55:58.528Z,50.50
2023-05-08T22:57:00.534Z,50.47
2023-05-08T22:58:03.147Z,51.02
2023-05-08T22:59:05.612Z,50.39
2023-05-08T23:00:08.786Z,50.70
2023-05-08T23:01:10.805Z,51.19
2023-05-08T23:02:12.563Z,51.28
2023-05-08T23:03:14.388Z,50.84
2023-05-08T23:04:16.141Z,50.90
2023-05-08T23:05:17.989Z,51.11
2023-05-08T23:06:19.810Z,51.05
2023-05-08T23:07:21.560Z,50.90
2023-05-08T23:08:23.407Z,51.00
2023-05-08T23:09:25.434Z,51.76
2023-05-08T23:10:27.164Z,51.27
2023-05-08T23:11:28.945Z,51.99
2023-05-08T23:12:30.786Z,51.44
2023-05-08T23:13:32.783Z,51.39
2023-05-08T23:14:34.542Z,51.13
2023-05-08T23:15:37.256Z,51.98
2023-05-08T23:16:39.104Z,51.11
2023-05-08T23:17:40.952Z,52.22
2023-05-08T23:18:42.760Z,51.94
2023-05-08T23:19:45.403Z,51.42
2023-05-08T23:20:47.244Z,52.19
2023-05-08T23:21:49.004Z,52.11
2023-05-08T23:22:50.865Z,52.51
2023-05-08T23:23:54.128Z,52.44
2023-05-08T23:24:56.007Z,52.63
2023-05-08T23:26:00.898Z,52.46
2023-05-08T23:27:02.767Z,52.20
2023-05-08T23:28:04.644Z,52.91
2023-05-08T23:29:06.438Z,52.91
2023-05-08T23:30:08.905Z,52.58
2023-05-08T23:31:10.867Z,52.63
2023-05-08T23:32:14.585Z,53.11
2023-05-08T23:33:16.265Z,52.72
2023-05-08T23:34:18.061Z,52.77
2023-05-08T23:35:20.022Z,52.27
2023-05-08T23:36:22.145Z,52.94
2023-05-08T23:37:23.946Z,53.31
2023-05-08T23:38:25.875Z,52.73
2023-05-08T23:39:27.751Z,53.37
2023-05-08T23:40:29.469Z,53.22
2023-05-08T23:41:32.218Z,53.34
2023-05-08T23:42:33.949Z,53.70
2023-05-08T23:43:35.853Z,53.33
2023-05-08T23:44:37.580Z,54.05
2023-05-08T23:45:39.352Z,53.65
2023-05-08T23:46:41.696Z,53.49
2023-05-08T23:47:43.585Z,53.30
2023-05-08T23:48:45.330Z,54.30
2023-05-08T23:49:47.824Z,54.15
2023-05-08T23:50:49.573Z,54.16
2023-05-08T23:51:51.584Z,53.65
2023-05-08T23:52:53.274Z,53.95
2023-05-08T23:53:55.325Z,53.68
2023-05-08T23:54:57.078Z,54.48
2023-05-08T23:55:58.808Z,54.23
2023-05-08T23:57:00.656Z,54.29
2023-05-08T23:58:02.714Z,53.94
2023-05-08T23:59:04.499Z,54.39
